sensor_id;sensor_type;location;lat;lon;timestamp;P1;durP1;ratioP1;P2;durP2;ratioP2
36359;SDS011;22388;52.432;20.662;2022-11-15T00:00:08;27.90;;;18.25;;
36359;SDS011;22388;52.432;20.662;2022-11-15T00:02:34;27.20;;;17.98;;
36359;SDS011;22388;52.432;20.662;2022-11-15T00:05:00;28.33;;;17.75;;
36359;SDS011;22388;52.432;20.662;2022-11-15T00:07:25;29.17;;;18.95;;
36359;SDS011;22388;52.432;20.662;2022-11-15T00:09:51;30.52;;;18.70;;
36359;SDS011;22388;52.432;20.662;2022-11-15T00:12:17;30.95;;;18.48;;
36359;SDS011;22388;52.432;20.662;2022-11-15T00:14:42;30.65;;;18.33;;
36359;SDS011;22388;52.432;20.662;2022-11-15T00:17:08;27.95;;;18.35;;
36359;SDS011;22388;52.432;20.662;2022-11-15T00:19:33;27.15;;;18.38;;
36359;SDS011;22388;52.432;20.662;2022-11-15T00:22:00;32.58;;;19.17;;
36359;SDS011;22388;52.432;20.662;2022-11-15T00:24:25;29.08;;;19.13;;
36359;SDS011;22388;52.432;20.662;2022-11-15T00:26:51;29.25;;;19.52;;
36359;SDS011;22388;52.432;20.662;2022-11-15T00:29:16;29.67;;;19.75;;
36359;SDS011;22388;52.432;20.662;2022-11-15T00:31:42;28.55;;;18.65;;
36359;SDS011;22388;52.432;20.662;2022-11-15T00:34:08;32.72;;;19.98;;
36359;SDS011;22388;52.432;20.662;2022-11-15T00:36:34;29.90;;;20.42;;
36359;SDS011;22388;52.432;20.662;2022-11-15T00:39:00;32.35;;;19.42;;
36359;SDS011;22388;52.432;20.662;2022-11-15T00:41:25;34.50;;;20.27;;
36359;SDS011;22388;52.432;20.662;2022-11-15T00:43:51;30.15;;;19.35;;
36359;SDS011;22388;52.432;20.662;2022-11-15T00:46:17;31.00;;;20.27;;
36359;SDS011;22388;52.432;20.662;2022-11-15T00:48:42;32.67;;;20.73;;
36359;SDS011;22388;52.432;20.662;2022-11-15T00:51:08;32.10;;;20.25;;
36359;SDS011;22388;52.432;20.662;2022-11-15T00:53:33;35.10;;;21.42;;
36359;SDS011;22388;52.432;20.662;2022-11-15T00:55:59;35.63;;;21.17;;
36359;SDS011;22388;52.432;20.662;2022-11-15T00:58:25;32.10;;;20.55;;
36359;SDS011;22388;52.432;20.662;2022-11-15T01:00:50;32.35;;;21.08;;
36359;SDS011;22388;52.432;20.662;2022-11-15T01:03:16;33.13;;;21.70;;
36359;SDS011;22388;52.432;20.662;2022-11-15T01:05:41;33.72;;;22.52;;
36359;SDS011;22388;52.432;20.662;2022-11-15T01:08:11;32.80;;;21.45;;
36359;SDS011;22388;52.432;20.662;2022-11-15T01:10:41;34.53;;;22.38;;
36359;SDS011;22388;52.432;20.662;2022-11-15T01:13:06;36.20;;;23.25;;
36359;SDS011;22388;52.432;20.662;2022-11-15T01:18:53;37.67;;;24.48;;
36359;SDS011;22388;52.432;20.662;2022-11-15T01:21:19;37.88;;;23.95;;
36359;SDS011;22388;52.432;20.662;2022-11-15T01:23:45;36.25;;;23.98;;
36359;SDS011;22388;52.432;20.662;2022-11-15T01:26:11;41.58;;;25.90;;
36359;SDS011;22388;52.432;20.662;2022-11-15T01:28:40;40.42;;;26.13;;
36359;SDS011;22388;52.432;20.662;2022-11-15T01:31:07;44.28;;;26.98;;
36359;SDS011;22388;52.432;20.662;2022-11-15T01:33:36;43.35;;;28.13;;
36359;SDS011;22388;52.432;20.662;2022-11-15T01:36:06;43.45;;;27.70;;
36359;SDS011;22388;52.432;20.662;2022-11-15T01:38:33;42.38;;;28.38;;
36359;SDS011;22388;52.432;20.662;2022-11-15T01:40:58;45.63;;;28.42;;
36359;SDS011;22388;52.432;20.662;2022-11-15T01:43:25;47.03;;;29.30;;
36359;SDS011;22388;52.432;20.662;2022-11-15T01:48:31;43.67;;;30.35;;
36359;SDS011;22388;52.432;20.662;2022-11-15T01:51:02;50.70;;;30.77;;
36359;SDS011;22388;52.432;20.662;2022-11-15T01:53:32;47.90;;;30.73;;
36359;SDS011;22388;52.432;20.662;2022-11-15T01:55:59;51.10;;;31.88;;
36359;SDS011;22388;52.432;20.662;2022-11-15T01:58:28;52.17;;;32.67;;
36359;SDS011;22388;52.432;20.662;2022-11-15T02:00:53;50.95;;;32.13;;
36359;SDS011;22388;52.432;20.662;2022-11-15T02:03:19;53.78;;;32.55;;
36359;SDS011;22388;52.432;20.662;2022-11-15T02:05:47;54.50;;;32.97;;
36359;SDS011;22388;52.432;20.662;2022-11-15T02:08:14;53.90;;;33.33;;
36359;SDS011;22388;52.432;20.662;2022-11-15T02:10:45;59.05;;;34.35;;
36359;SDS011;22388;52.432;20.662;2022-11-15T02:13:13;55.65;;;33.38;;
36359;SDS011;22388;52.432;20.662;2022-11-15T02:15:42;59.72;;;35.20;;
36359;SDS011;22388;52.432;20.662;2022-11-15T02:18:18;56.55;;;34.20;;
36359;SDS011;22388;52.432;20.662;2022-11-15T02:29:11;60.03;;;34.65;;
36359;SDS011;22388;52.432;20.662;2022-11-15T02:31:45;55.70;;;34.42;;
36359;SDS011;22388;52.432;20.662;2022-11-15T02:39:34;59.65;;;35.47;;
36359;SDS011;22388;52.432;20.662;2022-11-15T02:42:05;62.83;;;36.78;;
36359;SDS011;22388;52.432;20.662;2022-11-15T02:44:55;52.65;;;33.58;;
36359;SDS011;22388;52.432;20.662;2022-11-15T02:47:22;55.05;;;33.72;;
36359;SDS011;22388;52.432;20.662;2022-11-15T02:49:50;53.72;;;33.42;;
36359;SDS011;22388;52.432;20.662;2022-11-15T02:52:17;56.50;;;33.53;;
36359;SDS011;22388;52.432;20.662;2022-11-15T02:54:54;58.28;;;35.60;;
36359;SDS011;22388;52.432;20.662;2022-11-15T03:00:12;67.25;;;37.30;;
36359;SDS011;22388;52.432;20.662;2022-11-15T03:05:35;57.40;;;34.28;;
36359;SDS011;22388;52.432;20.662;2022-11-15T03:11:07;58.67;;;35.22;;
36359;SDS011;22388;52.432;20.662;2022-11-15T03:13:38;61.63;;;34.75;;
36359;SDS011;22388;52.432;20.662;2022-11-15T03:16:09;61.25;;;36.28;;
36359;SDS011;22388;52.432;20.662;2022-11-15T03:18:41;58.28;;;34.53;;
36359;SDS011;22388;52.432;20.662;2022-11-15T03:21:28;61.97;;;36.28;;
36359;SDS011;22388;52.432;20.662;2022-11-15T03:23:55;60.58;;;36.13;;
36359;SDS011;22388;52.432;20.662;2022-11-15T03:26:23;63.55;;;36.40;;
36359;SDS011;22388;52.432;20.662;2022-11-15T03:28:54;59.25;;;36.22;;
36359;SDS011;22388;52.432;20.662;2022-11-15T03:31:22;61.13;;;36.33;;
36359;SDS011;22388;52.432;20.662;2022-11-15T03:34:09;59.85;;;34.97;;
36359;SDS011;22388;52.432;20.662;2022-11-15T03:36:36;58.97;;;35.30;;
36359;SDS011;22388;52.432;20.662;2022-11-15T03:39:05;60.65;;;35.38;;
36359;SDS011;22388;52.432;20.662;2022-11-15T03:41:39;60.55;;;36.13;;
36359;SDS011;22388;52.432;20.662;2022-11-15T03:49:36;64.15;;;36.30;;
36359;SDS011;22388;52.432;20.662;2022-11-15T03:52:02;59.35;;;34.90;;
36359;SDS011;22388;52.432;20.662;2022-11-15T03:54:29;62.55;;;35.50;;
36359;SDS011;22388;52.432;20.662;2022-11-15T03:56:54;62.55;;;34.53;;
36359;SDS011;22388;52.432;20.662;2022-11-15T03:59:20;61.40;;;34.83;;
36359;SDS011;22388;52.432;20.662;2022-11-15T04:01:45;58.72;;;34.53;;
36359;SDS011;22388;52.432;20.662;2022-11-15T04:04:11;59.40;;;34.03;;
36359;SDS011;22388;52.432;20.662;2022-11-15T04:06:37;60.35;;;35.58;;
36359;SDS011;22388;52.432;20.662;2022-11-15T04:09:03;61.88;;;35.42;;
36359;SDS011;22388;52.432;20.662;2022-11-15T04:11:28;58.35;;;33.58;;
36359;SDS011;22388;52.432;20.662;2022-11-15T04:13:54;58.95;;;33.78;;
36359;SDS011;22388;52.432;20.662;2022-11-15T04:16:19;60.83;;;35.13;;
36359;SDS011;22388;52.432;20.662;2022-11-15T04:18:51;60.75;;;33.38;;
36359;SDS011;22388;52.432;20.662;2022-11-15T04:21:36;62.33;;;35.47;;
36359;SDS011;22388;52.432;20.662;2022-11-15T04:24:20;59.95;;;34.60;;
36359;SDS011;22388;52.432;20.662;2022-11-15T04:26:46;60.38;;;34.13;;
36359;SDS011;22388;52.432;20.662;2022-11-15T04:29:11;61.25;;;34.33;;
36359;SDS011;22388;52.432;20.662;2022-11-15T04:31:55;62.47;;;35.65;;
36359;SDS011;22388;52.432;20.662;2022-11-15T04:34:21;63.70;;;34.58;;
36359;SDS011;22388;52.432;20.662;2022-11-15T04:36:47;59.65;;;35.17;;
36359;SDS011;22388;52.432;20.662;2022-11-15T04:39:30;65.05;;;34.92;;
36359;SDS011;22388;52.432;20.662;2022-11-15T04:41:56;58.95;;;32.22;;
36359;SDS011;22388;52.432;20.662;2022-11-15T04:44:22;61.33;;;35.60;;
36359;SDS011;22388;52.432;20.662;2022-11-15T04:46:47;63.00;;;34.80;;
36359;SDS011;22388;52.432;20.662;2022-11-15T04:49:13;56.92;;;33.83;;
36359;SDS011;22388;52.432;20.662;2022-11-15T04:51:38;59.30;;;34.05;;
36359;SDS011;22388;52.432;20.662;2022-11-15T04:54:04;61.58;;;34.85;;
36359;SDS011;22388;52.432;20.662;2022-11-15T04:56:29;63.35;;;35.25;;
36359;SDS011;22388;52.432;20.662;2022-11-15T04:58:55;63.17;;;35.60;;
36359;SDS011;22388;52.432;20.662;2022-11-15T05:01:20;63.05;;;34.40;;
36359;SDS011;22388;52.432;20.662;2022-11-15T05:03:46;60.40;;;33.70;;
36359;SDS011;22388;52.432;20.662;2022-11-15T05:06:30;59.55;;;32.67;;
36359;SDS011;22388;52.432;20.662;2022-11-15T05:08:56;61.58;;;35.08;;
36359;SDS011;22388;52.432;20.662;2022-11-15T05:11:22;63.50;;;34.42;;
36359;SDS011;22388;52.432;20.662;2022-11-15T05:13:48;66.93;;;35.13;;
36359;SDS011;22388;52.432;20.662;2022-11-15T05:16:13;63.88;;;35.65;;
36359;SDS011;22388;52.432;20.662;2022-11-15T05:18:39;67.85;;;35.13;;
36359;SDS011;22388;52.432;20.662;2022-11-15T05:21:06;64.25;;;34.83;;
36359;SDS011;22388;52.432;20.662;2022-11-15T05:23:33;65.03;;;33.92;;
36359;SDS011;22388;52.432;20.662;2022-11-15T05:25:59;59.50;;;33.58;;
36359;SDS011;22388;52.432;20.662;2022-11-15T05:28:26;59.50;;;34.83;;
36359;SDS011;22388;52.432;20.662;2022-11-15T05:30:51;63.72;;;33.83;;
36359;SDS011;22388;52.432;20.662;2022-11-15T05:33:17;65.32;;;33.53;;
36359;SDS011;22388;52.432;20.662;2022-11-15T05:35:45;64.82;;;33.28;;
36359;SDS011;22388;52.432;20.662;2022-11-15T05:38:14;62.65;;;34.05;;
36359;SDS011;22388;52.432;20.662;2022-11-15T05:40:40;63.67;;;34.28;;
36359;SDS011;22388;52.432;20.662;2022-11-15T05:43:05;61.92;;;34.38;;
36359;SDS011;22388;52.432;20.662;2022-11-15T05:45:31;63.72;;;32.45;;
36359;SDS011;22388;52.432;20.662;2022-11-15T05:47:58;59.05;;;32.00;;
36359;SDS011;22388;52.432;20.662;2022-11-15T05:50:24;61.15;;;31.13;;
36359;SDS011;22388;52.432;20.662;2022-11-15T05:52:50;60.25;;;32.30;;
36359;SDS011;22388;52.432;20.662;2022-11-15T05:55:15;56.88;;;30.05;;
36359;SDS011;22388;52.432;20.662;2022-11-15T05:57:41;62.50;;;32.60;;
36359;SDS011;22388;52.432;20.662;2022-11-15T06:00:07;63.72;;;32.85;;
36359;SDS011;22388;52.432;20.662;2022-11-15T06:02:34;59.47;;;31.60;;
36359;SDS011;22388;52.432;20.662;2022-11-15T06:05:00;61.70;;;32.58;;
36359;SDS011;22388;52.432;20.662;2022-11-15T06:07:26;61.47;;;32.58;;
36359;SDS011;22388;52.432;20.662;2022-11-15T06:09:51;62.40;;;31.33;;
36359;SDS011;22388;52.432;20.662;2022-11-15T06:12:17;61.92;;;31.60;;
36359;SDS011;22388;52.432;20.662;2022-11-15T06:14:42;60.15;;;32.28;;
36359;SDS011;22388;52.432;20.662;2022-11-15T06:17:08;68.38;;;33.20;;
36359;SDS011;22388;52.432;20.662;2022-11-15T06:19:33;64.75;;;32.78;;
36359;SDS011;22388;52.432;20.662;2022-11-15T06:21:59;67.65;;;33.28;;
36359;SDS011;22388;52.432;20.662;2022-11-15T06:24:25;67.25;;;32.70;;
36359;SDS011;22388;52.432;20.662;2022-11-15T06:26:50;64.82;;;32.53;;
36359;SDS011;22388;52.432;20.662;2022-11-15T06:29:16;71.88;;;35.22;;
36359;SDS011;22388;52.432;20.662;2022-11-15T06:31:41;71.47;;;34.47;;
36359;SDS011;22388;52.432;20.662;2022-11-15T06:34:07;63.17;;;31.67;;
36359;SDS011;22388;52.432;20.662;2022-11-15T06:36:34;62.50;;;32.28;;
36359;SDS011;22388;52.432;20.662;2022-11-15T06:39:01;56.33;;;31.17;;
36359;SDS011;22388;52.432;20.662;2022-11-15T06:41:27;60.30;;;30.15;;
36359;SDS011;22388;52.432;20.662;2022-11-15T06:43:52;60.55;;;30.30;;
36359;SDS011;22388;52.432;20.662;2022-11-15T06:46:18;57.30;;;30.13;;
36359;SDS011;22388;52.432;20.662;2022-11-15T06:48:43;58.53;;;29.83;;
36359;SDS011;22388;52.432;20.662;2022-11-15T06:51:09;58.17;;;28.98;;
36359;SDS011;22388;52.432;20.662;2022-11-15T06:53:35;59.13;;;30.02;;
36359;SDS011;22388;52.432;20.662;2022-11-15T06:56:02;54.42;;;28.95;;
36359;SDS011;22388;52.432;20.662;2022-11-15T06:58:29;57.13;;;29.67;;
36359;SDS011;22388;52.432;20.662;2022-11-15T07:00:58;67.07;;;31.02;;
36359;SDS011;22388;52.432;20.662;2022-11-15T07:03:28;57.15;;;29.77;;
36359;SDS011;22388;52.432;20.662;2022-11-15T07:05:53;62.70;;;30.30;;
36359;SDS011;22388;52.432;20.662;2022-11-15T07:08:21;60.60;;;31.33;;
36359;SDS011;22388;52.432;20.662;2022-11-15T07:10:47;60.83;;;31.15;;
36359;SDS011;22388;52.432;20.662;2022-11-15T07:13:13;61.75;;;30.38;;
36359;SDS011;22388;52.432;20.662;2022-11-15T07:15:38;69.18;;;31.40;;
36359;SDS011;22388;52.432;20.662;2022-11-15T07:18:04;62.85;;;29.08;;
36359;SDS011;22388;52.432;20.662;2022-11-15T07:20:30;64.15;;;30.13;;
36359;SDS011;22388;52.432;20.662;2022-11-15T07:22:59;63.30;;;30.45;;
36359;SDS011;22388;52.432;20.662;2022-11-15T07:25:26;58.20;;;29.30;;
36359;SDS011;22388;52.432;20.662;2022-11-15T07:27:58;62.40;;;29.98;;
36359;SDS011;22388;52.432;20.662;2022-11-15T07:30:24;78.35;;;31.33;;
36359;SDS011;22388;52.432;20.662;2022-11-15T07:32:54;68.75;;;31.75;;
36359;SDS011;22388;52.432;20.662;2022-11-15T07:35:20;67.90;;;30.98;;
36359;SDS011;22388;52.432;20.662;2022-11-15T07:37:56;62.70;;;30.15;;
36359;SDS011;22388;52.432;20.662;2022-11-15T07:40:23;66.60;;;30.17;;
36359;SDS011;22388;52.432;20.662;2022-11-15T07:42:49;65.40;;;29.80;;
36359;SDS011;22388;52.432;20.662;2022-11-15T07:45:23;64.90;;;30.25;;
36359;SDS011;22388;52.432;20.662;2022-11-15T07:47:51;58.85;;;29.05;;
36359;SDS011;22388;52.432;20.662;2022-11-15T07:50:17;61.15;;;29.75;;
36359;SDS011;22388;52.432;20.662;2022-11-15T07:52:43;60.22;;;28.75;;
36359;SDS011;22388;52.432;20.662;2022-11-15T07:55:09;58.33;;;28.15;;
36359;SDS011;22388;52.432;20.662;2022-11-15T07:57:35;63.03;;;30.20;;
36359;SDS011;22388;52.432;20.662;2022-11-15T08:00:00;63.45;;;30.55;;
36359;SDS011;22388;52.432;20.662;2022-11-15T08:02:26;66.47;;;31.00;;
36359;SDS011;22388;52.432;20.662;2022-11-15T08:04:52;64.78;;;28.98;;
36359;SDS011;22388;52.432;20.662;2022-11-15T08:07:17;70.68;;;31.75;;
36359;SDS011;22388;52.432;20.662;2022-11-15T08:09:43;64.38;;;30.10;;
36359;SDS011;22388;52.432;20.662;2022-11-15T08:12:08;62.40;;;29.67;;
36359;SDS011;22388;52.432;20.662;2022-11-15T08:14:34;59.72;;;29.08;;
36359;SDS011;22388;52.432;20.662;2022-11-15T08:17:01;65.57;;;31.55;;
36359;SDS011;22388;52.432;20.662;2022-11-15T08:19:26;63.05;;;29.10;;
36359;SDS011;22388;52.432;20.662;2022-11-15T08:21:52;66.25;;;30.45;;
36359;SDS011;22388;52.432;20.662;2022-11-15T08:24:18;69.15;;;29.98;;
36359;SDS011;22388;52.432;20.662;2022-11-15T08:26:43;68.30;;;30.55;;
36359;SDS011;22388;52.432;20.662;2022-11-15T08:29:09;69.95;;;31.58;;
36359;SDS011;22388;52.432;20.662;2022-11-15T08:31:35;68.72;;;31.17;;
36359;SDS011;22388;52.432;20.662;2022-11-15T08:34:01;68.05;;;31.67;;
36359;SDS011;22388;52.432;20.662;2022-11-15T08:36:28;66.78;;;30.67;;
36359;SDS011;22388;52.432;20.662;2022-11-15T08:38:53;62.25;;;31.05;;
36359;SDS011;22388;52.432;20.662;2022-11-15T08:41:24;65.30;;;30.35;;
36359;SDS011;22388;52.432;20.662;2022-11-15T08:43:55;66.25;;;30.75;;
36359;SDS011;22388;52.432;20.662;2022-11-15T08:46:21;67.05;;;32.20;;
36359;SDS011;22388;52.432;20.662;2022-11-15T08:48:47;68.70;;;32.72;;
36359;SDS011;22388;52.432;20.662;2022-11-15T08:51:13;68.78;;;32.03;;
36359;SDS011;22388;52.432;20.662;2022-11-15T08:53:38;66.75;;;30.45;;
36359;SDS011;22388;52.432;20.662;2022-11-15T08:56:06;68.10;;;32.05;;
36359;SDS011;22388;52.432;20.662;2022-11-15T08:58:34;69.72;;;32.88;;
36359;SDS011;22388;52.432;20.662;2022-11-15T09:01:00;62.67;;;31.60;;
36359;SDS011;22388;52.432;20.662;2022-11-15T09:03:25;65.00;;;31.63;;
36359;SDS011;22388;52.432;20.662;2022-11-15T09:05:55;69.18;;;32.10;;
36359;SDS011;22388;52.432;20.662;2022-11-15T09:08:21;66.82;;;31.80;;
36359;SDS011;22388;52.432;20.662;2022-11-15T09:10:46;70.68;;;33.30;;
36359;SDS011;22388;52.432;20.662;2022-11-15T09:13:12;69.90;;;32.13;;
36359;SDS011;22388;52.432;20.662;2022-11-15T09:15:38;66.47;;;32.20;;
36359;SDS011;22388;52.432;20.662;2022-11-15T09:18:04;63.38;;;30.48;;
36359;SDS011;22388;52.432;20.662;2022-11-15T09:20:29;62.58;;;30.40;;
36359;SDS011;22388;52.432;20.662;2022-11-15T09:22:58;64.15;;;29.92;;
36359;SDS011;22388;52.432;20.662;2022-11-15T09:25:26;67.25;;;30.83;;
36359;SDS011;22388;52.432;20.662;2022-11-15T09:27:51;64.35;;;32.42;;
36359;SDS011;22388;52.432;20.662;2022-11-15T09:30:17;66.53;;;33.22;;
36359;SDS011;22388;52.432;20.662;2022-11-15T09:32:42;64.97;;;32.53;;
36359;SDS011;22388;52.432;20.662;2022-11-15T09:35:08;65.53;;;31.85;;
36359;SDS011;22388;52.432;20.662;2022-11-15T09:37:33;64.93;;;32.80;;
36359;SDS011;22388;52.432;20.662;2022-11-15T09:39:59;64.68;;;31.92;;
36359;SDS011;22388;52.432;20.662;2022-11-15T09:42:38;67.97;;;32.53;;
36359;SDS011;22388;52.432;20.662;2022-11-15T09:45:20;60.92;;;30.00;;
36359;SDS011;22388;52.432;20.662;2022-11-15T09:50:36;58.53;;;30.20;;
36359;SDS011;22388;52.432;20.662;2022-11-15T09:53:38;62.38;;;30.52;;
36359;SDS011;22388;52.432;20.662;2022-11-15T09:56:22;59.65;;;30.48;;
36359;SDS011;22388;52.432;20.662;2022-11-15T10:04:29;61.13;;;30.63;;
36359;SDS011;22388;52.432;20.662;2022-11-15T10:06:58;61.95;;;31.30;;
36359;SDS011;22388;52.432;20.662;2022-11-15T10:09:56;53.65;;;29.40;;
36359;SDS011;22388;52.432;20.662;2022-11-15T10:12:22;59.78;;;30.08;;
36359;SDS011;22388;52.432;20.662;2022-11-15T10:14:49;58.35;;;31.20;;
36359;SDS011;22388;52.432;20.662;2022-11-15T10:20:10;56.78;;;29.75;;
36359;SDS011;22388;52.432;20.662;2022-11-15T10:25:24;59.55;;;30.58;;
36359;SDS011;22388;52.432;20.662;2022-11-15T10:27:58;58.15;;;29.05;;
36359;SDS011;22388;52.432;20.662;2022-11-15T10:30:49;62.78;;;30.92;;
36359;SDS011;22388;52.432;20.662;2022-11-15T10:41:19;63.65;;;32.28;;
36359;SDS011;22388;52.432;20.662;2022-11-15T10:44:08;63.78;;;31.38;;
36359;SDS011;22388;52.432;20.662;2022-11-15T10:46:37;63.78;;;31.70;;
36359;SDS011;22388;52.432;20.662;2022-11-15T10:49:15;63.15;;;32.20;;
36359;SDS011;22388;52.432;20.662;2022-11-15T10:52:24;65.22;;;31.73;;
36359;SDS011;22388;52.432;20.662;2022-11-15T10:57:17;59.00;;;30.38;;
36359;SDS011;22388;52.432;20.662;2022-11-15T10:59:46;61.05;;;31.63;;
36359;SDS011;22388;52.432;20.662;2022-11-15T11:05:00;62.53;;;31.70;;
36359;SDS011;22388;52.432;20.662;2022-11-15T11:07:27;67.28;;;33.15;;
36359;SDS011;22388;52.432;20.662;2022-11-15T11:10:05;65.88;;;32.83;;
36359;SDS011;22388;52.432;20.662;2022-11-15T11:12:43;64.95;;;33.47;;
36359;SDS011;22388;52.432;20.662;2022-11-15T11:15:09;64.78;;;32.15;;
36359;SDS011;22388;52.432;20.662;2022-11-15T11:22:54;61.30;;;32.22;;
36359;SDS011;22388;52.432;20.662;2022-11-15T11:28:00;66.95;;;33.45;;
36359;SDS011;22388;52.432;20.662;2022-11-15T11:31:03;66.57;;;32.67;;
36359;SDS011;22388;52.432;20.662;2022-11-15T11:34:29;68.80;;;34.00;;
36359;SDS011;22388;52.432;20.662;2022-11-15T11:36:40;72.35;;;35.85;;
36359;SDS011;22388;52.432;20.662;2022-11-15T11:39:33;72.45;;;34.72;;
36359;SDS011;22388;52.432;20.662;2022-11-15T11:50:51;69.35;;;33.25;;
36359;SDS011;22388;52.432;20.662;2022-11-15T11:55:55;67.32;;;34.63;;
36359;SDS011;22388;52.432;20.662;2022-11-15T11:58:28;70.55;;;36.20;;
36359;SDS011;22388;52.432;20.662;2022-11-15T12:01:16;74.50;;;34.45;;
36359;SDS011;22388;52.432;20.662;2022-11-15T12:03:46;79.18;;;36.05;;
36359;SDS011;22388;52.432;20.662;2022-11-15T12:06:21;76.97;;;36.13;;
36359;SDS011;22388;52.432;20.662;2022-11-15T12:11:29;75.50;;;36.22;;
36359;SDS011;22388;52.432;20.662;2022-11-15T12:14:01;84.07;;;40.50;;
36359;SDS011;22388;52.432;20.662;2022-11-15T12:16:31;84.10;;;37.47;;
36359;SDS011;22388;52.432;20.662;2022-11-15T12:19:01;83.18;;;38.17;;
36359;SDS011;22388;52.432;20.662;2022-11-15T12:29:46;84.55;;;39.38;;
36359;SDS011;22388;52.432;20.662;2022-11-15T12:32:26;85.93;;;38.88;;
36359;SDS011;22388;52.432;20.662;2022-11-15T12:34:54;77.53;;;39.53;;
36359;SDS011;22388;52.432;20.662;2022-11-15T12:42:41;95.70;;;42.15;;
36359;SDS011;22388;52.432;20.662;2022-11-15T12:45:25;85.90;;;39.75;;
36359;SDS011;22388;52.432;20.662;2022-11-15T12:50:52;86.32;;;38.80;;
36359;SDS011;22388;52.432;20.662;2022-11-15T12:58:43;90.65;;;41.60;;
36359;SDS011;22388;52.432;20.662;2022-11-15T13:04:29;92.00;;;42.15;;
36359;SDS011;22388;52.432;20.662;2022-11-15T13:06:53;89.75;;;39.42;;
36359;SDS011;22388;52.432;20.662;2022-11-15T13:11:53;79.63;;;37.75;;
36359;SDS011;22388;52.432;20.662;2022-11-15T13:19:46;79.55;;;37.03;;
36359;SDS011;22388;52.432;20.662;2022-11-15T13:22:13;73.47;;;35.85;;
36359;SDS011;22388;52.432;20.662;2022-11-15T13:24:57;72.93;;;35.88;;
36359;SDS011;22388;52.432;20.662;2022-11-15T13:27:27;74.00;;;35.42;;
36359;SDS011;22388;52.432;20.662;2022-11-15T13:29:53;66.18;;;33.08;;
36359;SDS011;22388;52.432;20.662;2022-11-15T13:32:18;79.53;;;36.83;;
36359;SDS011;22388;52.432;20.662;2022-11-15T13:34:45;87.13;;;39.92;;
36359;SDS011;22388;52.432;20.662;2022-11-15T13:37:27;86.40;;;37.28;;
36359;SDS011;22388;52.432;20.662;2022-11-15T13:39:53;81.72;;;37.65;;
36359;SDS011;22388;52.432;20.662;2022-11-15T13:42:19;86.82;;;37.17;;
36359;SDS011;22388;52.432;20.662;2022-11-15T13:44:59;80.90;;;38.35;;
36359;SDS011;22388;52.432;20.662;2022-11-15T13:47:26;94.32;;;40.42;;
36359;SDS011;22388;52.432;20.662;2022-11-15T13:49:53;89.68;;;41.10;;
36359;SDS011;22388;52.432;20.662;2022-11-15T13:52:22;88.20;;;40.10;;
36359;SDS011;22388;52.432;20.662;2022-11-15T13:55:04;91.50;;;39.63;;
36359;SDS011;22388;52.432;20.662;2022-11-15T13:57:46;86.07;;;40.20;;
36359;SDS011;22388;52.432;20.662;2022-11-15T14:03:04;84.57;;;37.42;;
36359;SDS011;22388;52.432;20.662;2022-11-15T14:05:33;89.97;;;37.75;;
36359;SDS011;22388;52.432;20.662;2022-11-15T14:08:03;83.15;;;38.75;;
36359;SDS011;22388;52.432;20.662;2022-11-15T14:10:37;81.38;;;37.67;;
36359;SDS011;22388;52.432;20.662;2022-11-15T14:13:04;84.32;;;38.10;;
36359;SDS011;22388;52.432;20.662;2022-11-15T14:15:35;81.57;;;37.65;;
36359;SDS011;22388;52.432;20.662;2022-11-15T14:18:03;80.90;;;37.40;;
36359;SDS011;22388;52.432;20.662;2022-11-15T14:20:31;78.55;;;36.33;;
36359;SDS011;22388;52.432;20.662;2022-11-15T14:23:01;85.40;;;36.53;;
36359;SDS011;22388;52.432;20.662;2022-11-15T14:25:33;75.60;;;34.65;;
36359;SDS011;22388;52.432;20.662;2022-11-15T14:28:10;69.22;;;33.42;;
36359;SDS011;22388;52.432;20.662;2022-11-15T14:30:41;67.55;;;32.70;;
36359;SDS011;22388;52.432;20.662;2022-11-15T14:35:47;77.40;;;35.03;;
36359;SDS011;22388;52.432;20.662;2022-11-15T14:38:12;80.43;;;35.55;;
36359;SDS011;22388;52.432;20.662;2022-11-15T14:40:39;89.78;;;37.95;;
36359;SDS011;22388;52.432;20.662;2022-11-15T14:43:07;78.30;;;34.63;;
36359;SDS011;22388;52.432;20.662;2022-11-15T14:48:02;74.53;;;34.75;;
36359;SDS011;22388;52.432;20.662;2022-11-15T14:50:28;78.03;;;34.67;;
36359;SDS011;22388;52.432;20.662;2022-11-15T14:52:54;77.60;;;34.17;;
36359;SDS011;22388;52.432;20.662;2022-11-15T14:55:23;76.90;;;34.78;;
36359;SDS011;22388;52.432;20.662;2022-11-15T14:57:50;73.20;;;33.03;;
36359;SDS011;22388;52.432;20.662;2022-11-15T15:00:17;79.65;;;35.22;;
36359;SDS011;22388;52.432;20.662;2022-11-15T15:02:44;80.55;;;33.83;;
36359;SDS011;22388;52.432;20.662;2022-11-15T15:07:42;75.38;;;33.53;;
36359;SDS011;22388;52.432;20.662;2022-11-15T15:10:08;77.25;;;34.45;;
36359;SDS011;22388;52.432;20.662;2022-11-15T15:12:34;79.57;;;35.35;;
36359;SDS011;22388;52.432;20.662;2022-11-15T15:15:00;79.00;;;35.83;;
36359;SDS011;22388;52.432;20.662;2022-11-15T15:17:25;81.88;;;35.53;;
36359;SDS011;22388;52.432;20.662;2022-11-15T15:19:51;76.63;;;34.95;;
36359;SDS011;22388;52.432;20.662;2022-11-15T15:22:19;80.93;;;36.55;;
36359;SDS011;22388;52.432;20.662;2022-11-15T15:24:47;81.13;;;36.28;;
36359;SDS011;22388;52.432;20.662;2022-11-15T15:27:13;85.13;;;37.03;;
36359;SDS011;22388;52.432;20.662;2022-11-15T15:29:39;79.68;;;36.80;;
36359;SDS011;22388;52.432;20.662;2022-11-15T15:32:05;81.22;;;37.55;;
36359;SDS011;22388;52.432;20.662;2022-11-15T15:34:32;84.20;;;37.80;;
36359;SDS011;22388;52.432;20.662;2022-11-15T15:39:55;93.28;;;38.10;;
36359;SDS011;22388;52.432;20.662;2022-11-15T15:42:22;90.07;;;38.15;;
36359;SDS011;22388;52.432;20.662;2022-11-15T15:44:51;82.28;;;37.03;;
36359;SDS011;22388;52.432;20.662;2022-11-15T15:47:20;76.70;;;35.13;;
36359;SDS011;22388;52.432;20.662;2022-11-15T15:49:48;78.90;;;33.22;;
36359;SDS011;22388;52.432;20.662;2022-11-15T15:52:14;85.68;;;36.33;;
36359;SDS011;22388;52.432;20.662;2022-11-15T15:54:40;78.95;;;35.05;;
36359;SDS011;22388;52.432;20.662;2022-11-15T15:57:07;79.72;;;34.72;;
36359;SDS011;22388;52.432;20.662;2022-11-15T15:59:34;81.50;;;35.15;;
36359;SDS011;22388;52.432;20.662;2022-11-15T16:01:59;77.10;;;33.40;;
36359;SDS011;22388;52.432;20.662;2022-11-15T16:04:25;79.72;;;33.03;;
36359;SDS011;22388;52.432;20.662;2022-11-15T16:06:51;82.88;;;34.35;;
36359;SDS011;22388;52.432;20.662;2022-11-15T16:09:20;78.97;;;33.00;;
36359;SDS011;22388;52.432;20.662;2022-11-15T16:12:05;75.68;;;31.38;;
36359;SDS011;22388;52.432;20.662;2022-11-15T16:14:31;72.78;;;31.17;;
36359;SDS011;22388;52.432;20.662;2022-11-15T16:16:57;73.93;;;32.50;;
36359;SDS011;22388;52.432;20.662;2022-11-15T16:19:23;80.13;;;33.35;;
36359;SDS011;22388;52.432;20.662;2022-11-15T16:21:49;72.72;;;32.22;;
36359;SDS011;22388;52.432;20.662;2022-11-15T16:24:17;75.68;;;33.70;;
36359;SDS011;22388;52.432;20.662;2022-11-15T16:26:43;80.07;;;32.58;;